Time;durP1;ratioP1;P1;durP2;ratioP2;P2;SDS_P1;SDS_P2;PMS_P1;PMS_P2;Temp;Humidity;BMP_temperature;BMP_pressure;BME280_temperature;BME280_humidity;BME280_pressure;Samples;Min_cycle;Max_cycle;Signal;HPM_P1;HPM_P2
2022/04/30 00:00:58;;;;;;;41.63;21.60;;;5.60;97.60;;;;;;5094786;28;20024;-92
2022/04/30 00:03:26;;;;;;;44.60;22.35;;;5.60;97.80;;;;;;5094748;28;20050;-92
2022/04/30 00:05:53;;;;;;;41.92;21.50;;;5.50;97.90;;;;;;5094717;28;20386;-92
2022/04/30 00:08:19;;;;;;;44.15;22.17;;;5.50;98.10;;;;;;5094794;28;20032;-92
2022/04/30 00:10:44;;;;;;;45.80;23.67;;;5.50;98.30;;;;;;5094794;28;20028;-92
2022/04/30 00:13:10;;;;;;;47.95;23.83;;;5.40;98.40;;;;;;5094574;28;20111;-91
2022/04/30 00:15:37;;;;;;;45.17;23.17;;;5.40;98.40;;;;;;5094759;28;20111;-91
2022/04/30 00:18:04;;;;;;;46.22;22.35;;;5.30;98.40;;;;;;5094716;28;20020;-91
2022/04/30 00:20:29;;;;;;;48.38;23.90;;;5.30;98.60;;;;;;5094822;28;20105;-91
2022/04/30 00:22:56;;;;;;;48.08;23.77;;;5.30;98.70;;;;;;5094382;28;20016;-91
2022/04/30 00:25:23;;;;;;;51.25;25.58;;;5.30;98.80;;;;;;5094499;28;20074;-91
2022/04/30 00:27:50;;;;;;;61.22;29.35;;;5.30;99.00;;;;;;5094287;28;20043;-91
2022/04/30 00:30:17;;;;;;;82.70;34.88;;;5.20;99.10;;;;;;5094311;28;20478;-91
2022/04/30 00:32:43;;;;;;;82.47;36.47;;;5.20;99.20;;;;;;5094279;28;20055;-91
2022/04/30 00:35:09;;;;;;;97.13;42.95;;;5.20;99.40;;;;;;5093931;28;20076;-91
2022/04/30 00:37:34;;;;;;;126.68;51.13;;;5.20;99.60;;;;;;5094029;28;20024;-90
2022/04/30 00:40:02;;;;;;;141.40;56.80;;;5.20;99.60;;;;;;5094024;28;20043;-91
2022/04/30 00:42:28;;;;;;;139.85;51.88;;;5.20;99.80;;;;;;5094124;28;20463;-91
2022/04/30 00:44:54;;;;;;;140.25;53.38;;;5.10;99.90;;;;;;5093682;28;20031;-91
2022/04/30 00:47:19;;;;;;;133.43;50.90;;;5.20;99.90;;;;;;5093946;28;20153;-91
2022/04/30 00:49:46;;;;;;;137.35;51.83;;;5.20;99.90;;;;;;5094029;28;20055;-91
2022/04/30 00:52:18;;;;;;;132.50;52.15;;;5.10;99.90;;;;;;5094006;28;20028;-91
2022/04/30 00:54:49;;;;;;;120.55;46.72;;;5.10;99.90;;;;;;5093735;28;20032;-91
2022/04/30 00:57:23;;;;;;;113.63;45.95;;;5.10;99.90;;;;;;5093870;28;20012;-90
2022/04/30 01:00:00;;;;;;;106.13;44.15;;;5.10;99.90;;;;;;5093692;28;20020;-91
2022/04/30 01:02:31;;;;;;;99.85;41.70;;;5.10;99.90;;;;;;5094471;28;20052;-90
2022/04/30 01:04:58;;;;;;;88.40;37.20;;;5.00;99.90;;;;;;5094734;28;20035;-91
2022/04/30 01:07:26;;;;;;;78.90;34.35;;;5.00;99.90;;;;;;5094704;28;20123;-90
2022/04/30 01:09:53;;;;;;;71.57;32.33;;;5.00;99.90;;;;;;5093749;28;20031;-90
2022/04/30 01:12:20;;;;;;;59.20;29.95;;;4.90;99.90;;;;;;5094907;28;20065;-90
2022/04/30 01:14:47;;;;;;;65.70;32.30;;;4.90;99.90;;;;;;5093736;28;20024;-90
2022/04/30 01:17:13;;;;;;;65.68;31.00;;;4.90;99.90;;;;;;5094563;28;20397;-90
2022/04/30 01:19:43;;;;;;;61.15;30.00;;;4.90;99.90;;;;;;5093615;28;20044;-91
2022/04/30 01:22:47;;;;;;;63.72;29.70;;;4.80;99.90;;;;;;5093377;28;20382;-91
2022/04/30 01:25:13;;;;;;;63.63;30.60;;;4.80;99.90;;;;;;5093886;28;20028;-91
2022/04/30 01:27:41;;;;;;;63.97;29.60;;;4.80;99.90;;;;;;5093430;28;20028;-91
2022/04/30 01:30:08;;;;;;;61.72;30.40;;;4.80;99.90;;;;;;5093368;28;20470;-91
2022/04/30 01:38:10;;;;;;;52.80;27.58;;;4.70;99.90;;;;;;5095185;28;20037;-91
2022/04/30 01:40:36;;;;;;;57.42;28.58;;;4.70;99.90;;;;;;5093366;28;20069;-90
2022/04/30 01:43:05;;;;;;;55.53;28.38;;;4.70;99.90;;;;;;5093047;28;20020;-91
2022/04/30 01:45:33;;;;;;;60.85;29.20;;;4.70;99.90;;;;;;5093105;28;20127;-91
2022/04/30 01:48:02;;;;;;;57.30;28.60;;;4.70;99.90;;;;;;5093331;28;20386;-91
2022/04/30 01:50:28;;;;;;;52.90;27.73;;;4.60;99.90;;;;;;5093150;28;20471;-91
2022/04/30 01:52:54;;;;;;;58.00;27.10;;;4.60;99.90;;;;;;5093324;28;20061;-91
2022/04/30 01:55:20;;;;;;;52.88;27.92;;;4.60;99.90;;;;;;5093387;28;20466;-91
2022/04/30 01:57:46;;;;;;;62.20;28.20;;;4.70;99.90;;;;;;5097219;28;20031;-91
2022/04/30 02:00:14;;;;;;;53.65;27.58;;;4.70;99.90;;;;;;5097218;28;20020;-91
2022/04/30 02:02:45;;;;;;;52.42;27.73;;;4.70;99.90;;;;;;5097110;28;20020;-91
2022/04/30 02:05:13;;;;;;;51.13;27.00;;;4.80;99.90;;;;;;5098016;28;20047;-90
2022/04/30 02:08:07;;;;;;;59.78;29.50;;;4.80;99.90;;;;;;5097335;28;20020;-91
2022/04/30 02:10:39;;;;;;;96.05;38.50;;;4.80;99.90;;;;;;5097124;28;20038;-92
2022/04/30 02:13:10;;;;;;;70.65;33.83;;;4.80;99.90;;;;;;5097028;28;20029;-90
2022/04/30 02:15:41;;;;;;;66.00;31.52;;;4.80;99.90;;;;;;5097008;28;20040;-91
2022/04/30 02:18:12;;;;;;;68.53;31.45;;;4.90;99.90;;;;;;5097693;28;20020;-91
2022/04/30 02:20:43;;;;;;;58.97;28.60;;;5.00;99.90;;;;;;5096974;28;20020;-91
2022/04/30 02:23:09;;;;;;;;;;;5.00;99.90;;;;;;5098454;28;20020;-91
2022/04/30 02:25:36;;;;;;;53.63;25.83;;;5.00;99.90;;;;;;5096777;28;20270;-91
2022/04/30 02:28:05;;;;;;;47.75;23.77;;;5.10;99.90;;;;;;5097079;28;20107;-91
2022/04/30 02:30:35;;;;;;;45.53;23.50;;;5.10;99.90;;;;;;5096751;28;20077;-91
2022/04/30 02:33:12;;;;;;;41.53;21.05;;;5.10;99.90;;;;;;5096987;28;20024;-91
2022/04/30 02:35:40;;;;;;;37.53;21.25;;;5.10;99.90;;;;;;5096530;28;20071;-91
2022/04/30 02:38:08;;;;;;;39.40;21.50;;;5.10;99.90;;;;;;5096725;28;20020;-91
2022/04/30 02:40:36;;;;;;;42.97;20.77;;;5.10;99.90;;;;;;5096837;28;20024;-91
2022/04/30 02:43:10;;;;;;;38.45;20.60;;;5.10;99.90;;;;;;5097724;28;20024;-91
2022/04/30 02:45:38;;;;;;;38.10;20.77;;;5.10;99.90;;;;;;5096703;28;20020;-91
2022/04/30 02:48:06;;;;;;;40.70;21.70;;;5.10;99.90;;;;;;5096394;28;20059;-91
2022/04/30 02:50:34;;;;;;;43.10;21.30;;;5.10;99.90;;;;;;5096811;28;20035;-91
2022/04/30 02:53:00;;;;;;;39.38;20.90;;;5.00;99.90;;;;;;5096573;28;20028;-91
2022/04/30 02:55:26;;;;;;;36.45;20.05;;;5.00;99.90;;;;;;5096610;28;20032;-91
2022/04/30 03:00:40;;;;;;;35.53;19.90;;;5.00;99.90;;;;;;5097833;28;20031;-91
2022/04/30 03:03:07;;;;;;;36.03;21.23;;;5.00;99.90;;;;;;5096230;28;20024;-91
2022/04/30 03:05:35;;;;;;;39.35;21.23;;;4.90;99.90;;;;;;5096418;28;20032;-91
2022/04/30 03:08:06;;;;;;;37.83;20.48;;;4.90;99.90;;;;;;5095689;28;20142;-91
2022/04/30 03:10:32;;;;;;;42.83;22.77;;;4.90;99.90;;;;;;5097787;28;20122;-91
2022/04/30 03:12:58;;;;;;;43.35;21.42;;;5.00;99.90;;;;;;5097121;28;20418;-91
2022/04/30 03:15:27;;;;;;;39.88;21.05;;;5.00;99.90;;;;;;5096856;28;20020;-91
2022/04/30 03:23:21;;;;;;;30.73;17.67;;;5.10;99.90;;;;;;5097491;28;20031;-91
2022/04/30 03:25:47;;;;;;;36.08;18.80;;;5.30;99.90;;;;;;5097508;28;20028;-91
2022/04/30 03:28:13;;;;;;;32.83;18.67;;;5.40;99.90;;;;;;5095853;28;20073;-91
2022/04/30 03:30:39;;;;;;;32.65;18.15;;;5.50;99.90;;;;;;5095644;28;20028;-91
2022/04/30 03:33:08;;;;;;;35.15;19.08;;;5.70;99.90;;;;;;5095771;28;20031;-91
2022/04/30 03:35:38;;;;;;;33.42;18.27;;;5.80;99.90;;;;;;5095371;28;20414;-91
2022/04/30 03:38:08;;;;;;;32.92;18.17;;;5.90;99.90;;;;;;5095556;28;20020;-91
2022/04/30 03:40:34;;;;;;;30.00;18.45;;;6.10;99.90;;;;;;5095453;28;20031;-91
2022/04/30 03:43:01;;;;;;;33.50;18.42;;;6.30;99.90;;;;;;5095414;28;20020;-90
2022/04/30 03:45:27;;;;;;;40.13;18.55;;;6.40;99.90;;;;;;5095350;28;20398;-90
2022/04/30 03:47:53;;;;;;;22.25;13.85;;;6.60;99.90;;;;;;5095150;28;20039;-91
2022/04/30 03:50:19;;;;;;;29.75;16.10;;;6.70;99.90;;;;;;5095322;28;20020;-90
2022/04/30 03:52:45;;;;;;;28.27;15.00;;;6.90;99.90;;;;;;5095224;28;20474;-90
2022/04/30 03:55:11;;;;;;;25.10;14.88;;;7.00;99.90;;;;;;5095074;28;20106;-90
2022/04/30 03:57:36;;;;;;;23.83;15.32;;;7.20;99.90;;;;;;5096608;28;20020;-90
2022/04/30 04:00:04;;;;;;;26.33;15.68;;;7.40;99.90;;;;;;5095104;28;20024;-90
2022/04/30 04:02:31;;;;;;;29.88;15.23;;;7.50;99.90;;;;;;5095326;28;20028;-91
2022/04/30 04:04:57;;;;;;;28.83;15.32;;;7.60;99.90;;;;;;5094917;28;20020;-90
2022/04/30 04:07:23;;;;;;;26.80;15.05;;;7.70;99.90;;;;;;5094970;28;20582;-90
2022/04/30 04:09:49;;;;;;;25.65;14.98;;;7.80;99.90;;;;;;5094792;28;20120;-90
2022/04/30 04:12:14;;;;;;;25.27;15.13;;;7.80;99.90;;;;;;5094843;28;20031;-90
2022/04/30 04:17:39;;;;;;;26.13;14.38;;;8.00;99.90;;;;;;5096107;28;20031;-90
2022/04/30 04:20:11;;;;;;;22.27;13.10;;;8.20;99.90;;;;;;5094023;28;20024;-90
2022/04/30 04:22:37;;;;;;;29.23;14.48;;;8.40;99.90;;;;;;5094614;28;20030;-90
2022/04/30 04:27:53;;;;;;;22.92;11.75;;;8.70;99.90;;;;;;5096136;28;20039;-90
2022/04/30 04:30:22;;;;;;;22.45;11.43;;;8.90;99.90;;;;;;5094535;28;20115;-89
2022/04/30 04:32:49;;;;;;;16.80;10.50;;;9.00;99.90;;;;;;5094339;28;20039;-90
2022/04/30 04:35:15;;;;;;;21.95;12.27;;;9.20;99.90;;;;;;5094110;28;20536;-89
2022/04/30 04:37:44;;;;;;;21.92;11.40;;;9.50;99.90;;;;;;5094768;28;20024;-89
2022/04/30 04:40:11;;;;;;;19.10;10.57;;;9.70;99.90;;;;;;5094199;28;20395;-90
2022/04/30 04:42:38;;;;;;;15.57;9.23;;;9.90;99.50;;;;;;5095291;28;20103;-89
2022/04/30 04:45:04;;;;;;;14.05;8.60;;;10.10;98.90;;;;;;5094061;28;20028;-89
2022/04/30 04:47:31;;;;;;;11.63;7.72;;;10.40;98.10;;;;;;5094049;28;20169;-89
2022/04/30 04:49:57;;;;;;;16.95;8.30;;;10.60;97.40;;;;;;5094005;28;20024;-89
2022/04/30 04:52:22;;;;;;;13.13;8.40;;;10.80;97.40;;;;;;5094028;28;20062;-90
2022/04/30 04:54:49;;;;;;;12.25;8.50;;;11.00;96.10;;;;;;5094086;28;20028;-91
2022/04/30 04:57:15;;;;;;;11.93;8.48;;;11.20;95.60;;;;;;5093900;28;20024;-89
2022/04/30 04:59:41;;;;;;;13.38;8.23;;;11.50;95.00;;;;;;5094167;28;20020;-89
2022/04/30 05:02:07;;;;;;;15.95;9.73;;;11.80;94.70;;;;;;5094091;28;20024;-89
2022/04/30 05:04:34;;;;;;;26.15;11.30;;;12.00;94.00;;;;;;5093885;28;20570;-90
2022/04/30 05:07:00;;;;;;;17.05;9.93;;;12.40;93.60;;;;;;5093595;28;20055;-89
2022/04/30 05:09:26;;;;;;;15.68;9.80;;;12.70;93.20;;;;;;5094872;28;20026;-89
2022/04/30 05:11:55;;;;;;;16.85;9.68;;;12.90;91.70;;;;;;5093571;28;20386;-89
2022/04/30 05:14:21;;;;;;;15.90;9.05;;;13.10;91.30;;;;;;5093693;28;20020;-89
2022/04/30 05:16:47;;;;;;;15.90;9.50;;;13.20;90.60;;;;;;5094806;28;20023;-89
2022/04/30 05:19:13;;;;;;;17.58;9.20;;;13.40;90.70;;;;;;5095010;28;20451;-89
2022/04/30 05:21:39;;;;;;;15.02;8.38;;;13.60;90.50;;;;;;5093421;28;20020;-90
2022/04/30 05:24:05;;;;;;;12.70;8.38;;;13.90;90.40;;;;;;5094823;28;20104;-90
2022/04/30 05:26:32;;;;;;;12.20;7.78;;;14.10;90.10;;;;;;5093538;28;20024;-90
2022/04/30 05:28:58;;;;;;;11.48;8.05;;;14.30;89.90;;;;;;5093407;28;20028;-90
2022/04/30 05:31:24;;;;;;;13.23;8.65;;;14.40;87.20;;;;;;5093334;28;20024;-90
2022/04/30 05:33:50;;;;;;;9.48;7.28;;;14.30;86.70;;;;;;5094677;28;20070;-90
2022/04/30 05:36:16;;;;;;;13.48;9.23;;;14.40;87.70;;;;;;5095055;28;20020;-90
2022/04/30 05:38:41;;;;;;;14.43;8.85;;;14.50;85.90;;;;;;5093395;28;20027;-91
2022/04/30 05:41:07;;;;;;;13.82;9.07;;;14.40;84.80;;;;;;5094609;28;20027;-91
2022/04/30 11:22:25;;;;;;;3.33;3.03;;;17.30;64.00;;;;;;5111882;27;20397;-83
2022/04/30 11:24:57;;;;;;;3.88;3.45;;;17.30;65.10;;;;;;5110827;28;20436;-90
2022/04/30 11:27:24;;;;;;;4.22;2.80;;;17.30;63.90;;;;;;5110732;28;20063;-87
2022/04/30 11:29:56;;;;;;;4.03;2.90;;;17.00;62.70;;;;;;5111446;28;20030;-83
2022/04/30 11:32:26;;;;;;;5.28;3.17;;;17.00;64.00;;;;;;5110193;28;20016;-85
2022/04/30 11:34:54;;;;;;;6.85;4.00;;;17.00;64.40;;;;;;5110964;28;20099;-88
2022/04/30 11:37:20;;;;;;;4.38;3.25;;;17.10;64.20;;;;;;5110415;28;20482;-85
2022/04/30 11:39:46;;;;;;;40.50;13.65;;;17.20;64.20;;;;;;5110190;28;20398;-89
2022/04/30 11:42:12;;;;;;;18.85;6.72;;;17.20;64.10;;;;;;5111412;28;20024;-83
2022/04/30 11:44:38;;;;;;;3.90;3.10;;;17.20;63.90;;;;;;5111110;28;20054;-86
2022/04/30 11:47:07;;;;;;;4.10;2.92;;;17.30;63.70;;;;;;5108920;28;20677;-87
2022/04/30 11:49:34;;;;;;;17.10;12.25;;;17.20;62.70;;;;;;5110567;28;20039;-85
2022/04/30 11:52:00;;;;;;;5.60;4.45;;;17.40;63.50;;;;;;5109974;28;20045;-83
2022/04/30 11:54:28;;;;;;;6.80;3.78;;;17.50;63.30;;;;;;5110050;28;20089;-85
2022/04/30 11:56:54;;;;;;;11.50;6.18;;;17.60;62.90;;;;;;5110420;28;20028;-88
2022/04/30 11:59:55;;;;;;;4.82;3.70;;;17.60;62.70;;;;;;5109041;28;20047;-86
2022/04/30 12:02:20;;;;;;;4.85;3.05;;;17.50;61.10;;;;;;5067484;28;20398;-84
2022/04/30 12:04:47;;;;;;;8.00;3.72;;;17.40;61.50;;;;;;5110070;28;20031;-84
2022/04/30 12:07:14;;;;;;;5.90;3.47;;;17.30;61.90;;;;;;5110727;28;20032;-83
2022/04/30 12:09:50;;;;;;;3.92;3.50;;;17.20;61.70;;;;;;5109410;28;20110;-82
2022/04/30 12:12:22;;;;;;;8.25;4.10;;;16.90;61.80;;;;;;5109281;28;20024;-84
2022/04/30 12:14:53;;;;;;;5.40;3.10;;;16.90;61.80;;;;;;5109522;28;20016;-84
2022/04/30 12:17:26;;;;;;;4.53;3.08;;;16.70;61.50;;;;;;5109256;28;20106;-85
2022/04/30 12:25:31;;;;;;;4.40;3.17;;;16.70;64.00;;;;;;5110519;28;20031;-81
2022/04/30 12:27:59;;;;;;;10.05;4.20;;;16.90;62.60;;;;;;5110008;28;20381;-82
2022/04/30 12:30:28;;;;;;;5.97;4.03;;;17.10;63.30;;;;;;5109005;28;20028;-82
2022/04/30 12:33:03;;;;;;;6.60;3.80;;;17.30;63.10;;;;;;5100353;28;20093;-82
2022/04/30 12:35:35;;;;;;;15.93;6.38;;;17.30;61.20;;;;;;5097812;28;20408;-84
2022/04/30 12:38:05;;;;;;;7.55;4.30;;;17.40;61.80;;;;;;5099831;28;20028;-87
2022/04/30 12:40:33;;;;;;;4.15;2.92;;;17.50;61.30;;;;;;5095602;28;20390;-86
2022/04/30 12:42:59;;;;;;;7.85;3.97;;;17.60;60.80;;;;;;5095728;28;20020;-86
2022/04/30 12:45:25;;;;;;;3.55;3.00;;;17.70;61.00;;;;;;5095451;28;20031;-87
2022/04/30 12:47:52;;;;;;;4.45;3.25;;;17.70;60.30;;;;;;5095594;28;20466;-86
2022/04/30 12:50:18;;;;;;;4.65;3.15;;;17.70;60.50;;;;;;5095337;28;20036;-87
2022/04/30 12:52:45;;;;;;;4.78;2.80;;;17.90;61.10;;;;;;5096689;28;20020;-87
2022/04/30 12:55:14;;;;;;;5.22;3.67;;;18.10;60.60;;;;;;5096905;28;20024;-87
2022/04/30 12:57:40;;;;;;;6.20;3.65;;;18.30;60.30;;;;;;5095487;28;20024;-86
2022/04/30 13:00:10;;;;;;;5.05;3.75;;;18.30;59.70;;;;;;5095049;28;20031;-86
2022/04/30 13:02:38;;;;;;;9.13;4.07;;;18.20;58.30;;;;;;5095136;28;20028;-86
2022/04/30 13:05:06;;;;;;;5.03;3.58;;;18.30;59.00;;;;;;5094979;28;20016;-86
2022/04/30 13:07:32;;;;;;;3.78;3.30;;;18.20;58.70;;;;;;5094979;28;20043;-86
2022/04/30 13:15:30;;;;;;;5.50;3.83;;;17.90;58.60;;;;;;5096536;28;20097;-86
2022/04/30 13:17:56;;;;;;;2.83;2.50;;;17.80;58.70;;;;;;5096164;28;20057;-86
2022/04/30 13:20:22;;;;;;;3.97;2.42;;;17.70;59.00;;;;;;5095932;28;20765;-86
2022/04/30 13:22:49;;;;;;;5.35;3.70;;;17.60;59.20;;;;;;5096182;28;20101;-87
2022/04/30 13:25:16;;;;;;;4.60;3.15;;;17.30;57.90;;;;;;5094895;28;20050;-86
2022/04/30 13:27:42;;;;;;;5.10;4.60;;;17.20;58.70;;;;;;5094567;28;20063;-86
2022/04/30 13:30:09;;;;;;;8.70;5.05;;;17.20;59.10;;;;;;5095932;28;20016;-87
2022/04/30 13:32:35;;;;;;;5.03;3.60;;;17.10;59.20;;;;;;5095739;28;20081;-86
2022/04/30 13:35:00;;;;;;;6.97;3.08;;;17.10;59.50;;;;;;5094479;28;20020;-86
2022/04/30 13:37:26;;;;;;;4.25;2.67;;;17.10;59.50;;;;;;5095611;28;20039;-86
2022/04/30 13:39:52;;;;;;;5.10;3.10;;;17.30;59.50;;;;;;5095782;28;20044;-86
2022/04/30 13:42:17;;;;;;;4.60;2.70;;;17.40;58.90;;;;;;5094345;28;20028;-87
2022/04/30 13:50:42;;;;;;;7.38;2.60;;;17.40;56.40;;;;;;5111744;27;20373;-83
2022/04/30 13:53:08;;;;;;;19.08;3.30;;;17.90;58.80;;;;;;5110855;28;20114;-88
2022/04/30 13:55:34;;;;;;;2.97;2.67;;;18.20;58.60;;;;;;5112282;28;20093;-89
2022/04/30 13:58:00;;;;;;;27.90;4.05;;;18.30;58.40;;;;;;5112500;28;20019;-84
2022/04/30 14:00:27;;;;;;;7.25;2.92;;;18.50;58.40;;;;;;5110580;28;20023;-80
2022/04/30 14:02:54;;;;;;;4.70;3.35;;;18.60;57.80;;;;;;5111504;28;20103;-81
2022/04/30 14:05:21;;;;;;;182.73;13.90;;;18.80;57.90;;;;;;5109894;28;20505;-77
2022/04/30 14:07:47;;;;;;;45.67;4.47;;;19.10;56.20;;;;;;5111390;28;20032;-77
2022/04/30 14:10:13;;;;;;;84.60;8.73;;;19.10;56.40;;;;;;5109884;28;20462;-78
2022/04/30 14:12:38;;;;;;;18.30;4.25;;;19.20;56.70;;;;;;5109765;28;20016;-78
2022/04/30 14:15:05;;;;;;;443.63;25.00;;;19.30;56.20;;;;;;5111015;28;20386;-81
2022/04/30 14:20:17;;;;;;;8.35;5.57;;;19.70;55.50;;;;;;5110987;28;20069;-82
2022/04/30 14:22:47;;;;;;;6.65;3.72;;;19.40;55.10;;;;;;5111528;28;20024;-81
2022/04/30 14:25:14;;;;;;;6.60;4.15;;;19.00;55.60;;;;;;5109719;28;20478;-81
2022/04/30 14:27:41;;;;;;;3.50;2.80;;;19.00;55.90;;;;;;5111043;28;20042;-81
2022/04/30 14:30:09;;;;;;;8.68;3.83;;;18.90;55.40;;;;;;5110854;28;20028;-81
2022/04/30 14:32:35;;;;;;;4.68;3.78;;;18.60;55.50;;;;;;5109499;28;20034;-81
2022/04/30 14:35:03;;;;;;;4.30;3.90;;;18.40;55.80;;;;;;5110558;28;20500;-81
2022/04/30 14:37:30;;;;;;;6.85;3.63;;;17.80;56.70;;;;;;5110705;28;20062;-81
2022/04/30 14:39:57;;;;;;;6.43;3.60;;;17.70;57.10;;;;;;5110691;28;20466;-81
2022/04/30 14:42:25;;;;;;;5.18;3.40;;;17.60;57.50;;;;;;5110499;28;20027;-80
2022/04/30 14:44:51;;;;;;;3.90;3.33;;;17.40;57.90;;;;;;5110554;28;20016;-80
2022/04/30 14:47:18;;;;;;;3.22;2.92;;;17.20;58.00;;;;;;5110567;28;20390;-80
2022/04/30 14:49:45;;;;;;;5.80;5.20;;;17.20;58.20;;;;;;5108939;28;20048;-80
2022/04/30 14:52:11;;;;;;;12.10;10.13;;;16.90;57.90;;;;;;5109357;28;20024;-80
2022/04/30 14:54:37;;;;;;;7.28;6.55;;;17.10;58.70;;;;;;5110262;28;20020;-80
2022/04/30 14:57:03;;;;;;;11.73;9.48;;;17.30;58.60;;;;;;5108955;28;20023;-80
2022/04/30 14:59:29;;;;;;;4.28;3.88;;;17.50;58.30;;;;;;5108932;28;20035;-80
2022/04/30 15:01:55;;;;;;;13.57;9.75;;;17.70;57.50;;;;;;5095892;28;20382;-80
2022/04/30 15:04:20;;;;;;;8.32;6.50;;;17.60;56.90;;;;;;5096506;28;20035;-80
2022/04/30 15:06:46;;;;;;;6.43;3.92;;;17.50;57.40;;;;;;5095069;28;20387;-80
2022/04/30 15:09:11;;;;;;;9.65;7.18;;;17.40;57.40;;;;;;5095061;28;20422;-80
2022/04/30 15:11:37;;;;;;;7.80;5.30;;;17.30;57.80;;;;;;5096486;28;20020;-80
2022/04/30 15:14:03;;;;;;;46.88;33.08;;;17.30;57.80;;;;;;5095092;28;20028;-80
2022/04/30 15:16:29;;;;;;;42.60;29.23;;;16.90;57.80;;;;;;5095224;28;20020;-80
2022/04/30 15:18:56;;;;;;;33.05;24.70;;;16.90;58.30;;;;;;5094901;28;20136;-81
2022/04/30 15:21:22;;;;;;;9.40;5.90;;;16.90;58.50;;;;;;5096274;28;20031;-81
2022/04/30 15:23:47;;;;;;;7.65;4.18;;;16.90;58.40;;;;;;5094959;28;20024;-80
2022/04/30 15:26:13;;;;;;;13.38;7.95;;;16.90;58.10;;;;;;5096144;28;20027;-80
2022/04/30 15:28:39;;;;;;;55.92;32.40;;;17.00;58.20;;;;;;5094402;28;20038;-81
2022/04/30 15:31:05;;;;;;;11.63;6.60;;;16.70;58.50;;;;;;5095996;28;20034;-80
2022/04/30 15:33:30;;;;;;;9.48;7.72;;;16.70;59.00;;;;;;5095833;28;20016;-80
2022/04/30 15:35:57;;;;;;;9.93;8.43;;;16.60;59.80;;;;;;5096218;28;20468;-81
2022/04/30 15:38:22;;;;;;;13.40;10.40;;;16.60;59.50;;;;;;5094872;28;20027;-81
2022/04/30 15:40:48;;;;;;;9.23;6.18;;;16.70;59.60;;;;;;5094625;28;20020;-81
2022/04/30 15:43:14;;;;;;;4.68;3.53;;;16.80;59.40;;;;;;5095835;28;20462;-80
2022/04/30 15:45:40;;;;;;;3.20;2.90;;;16.80;59.00;;;;;;5094503;28;20425;-80
2022/04/30 15:53:54;;;;;;;3.65;3.20;;;16.70;58.60;;;;;;5094298;28;20076;-81
2022/04/30 15:56:21;;;;;;;4.80;3.40;;;16.70;58.60;;;;;;5094157;28;20027;-82
2022/04/30 15:58:54;;;;;;;4.97;2.90;;;16.60;58.90;;;;;;5092091;28;20151;-81
2022/04/30 16:01:23;;;;;;;4.85;3.75;;;16.40;59.80;;;;;;5093876;28;20289;-81
2022/04/30 16:03:48;;;;;;;8.18;5.47;;;16.20;60.20;;;;;;5092747;28;20047;-81
2022/04/30 16:06:15;;;;;;;12.55;7.38;;;16.00;60.20;;;;;;5094023;28;20474;-81
2022/04/30 16:08:41;;;;;;;11.15;6.68;;;15.90;60.70;;;;;;5093726;28;20020;-81
2022/04/30 16:11:07;;;;;;;5.15;4.38;;;15.80;60.90;;;;;;5095136;28;20027;-81
2022/04/30 16:13:32;;;;;;;15.48;11.90;;;15.70;60.70;;;;;;5094195;28;20024;-81
2022/04/30 16:16:04;;;;;;;14.35;9.30;;;15.60;61.10;;;;;;5093546;28;20017;-81
2022/04/30 16:18:31;;;;;;;13.73;9.82;;;15.50;60.90;;;;;;5095076;28;20375;-81
2022/04/30 16:20:58;;;;;;;6.03;3.90;;;15.40;61.80;;;;;;5093454;28;20386;-81
2022/04/30 16:23:25;;;;;;;4.50;3.40;;;15.00;62.50;;;;;;5093895;28;20038;-81
2022/04/30 16:25:51;;;;;;;9.95;3.42;;;14.80;64.00;;;;;;5093459;28;20162;-81
2022/04/30 16:28:17;;;;;;;7.93;4.68;;;14.60;64.40;;;;;;5093473;28;20025;-81
2022/04/30 16:30:43;;;;;;;4.15;3.45;;;14.60;64.50;;;;;;5093379;28;20043;-81
2022/04/30 16:33:11;;;;;;;7.90;3.65;;;14.50;65.80;;;;;;5093388;28;20119;-81
2022/04/30 16:35:37;;;;;;;7.47;3.80;;;14.40;65.70;;;;;;5093144;28;20055;-81
2022/04/30 16:38:03;;;;;;;6.65;3.60;;;14.30;66.30;;;;;;5094541;28;20089;-81
2022/04/30 16:40:30;;;;;;;4.80;2.90;;;14.30;66.20;;;;;;5094550;28;20020;-82
2022/04/30 16:42:55;;;;;;;8.30;3.88;;;14.30;65.90;;;;;;5094489;28;20028;-81
2022/04/30 16:45:22;;;;;;;7.13;3.67;;;14.30;65.90;;;;;;5092985;28;20035;-81
2022/04/30 16:47:47;;;;;;;7.95;5.40;;;14.40;66.00;;;;;;5094410;28;20038;-81
2022/04/30 16:50:13;;;;;;;12.68;6.47;;;14.40;66.20;;;;;;5092557;28;20047;-81
2022/04/30 16:52:39;;;;;;;6.32;4.35;;;14.40;66.80;;;;;;5094604;28;20374;-81
2022/04/30 16:57:49;;;;;;;5.05;3.83;;;14.20;66.90;;;;;;5094659;28;20031;-81
2022/04/30 17:00:17;;;;;;;5.80;3.60;;;14.20;66.90;;;;;;5094108;28;20028;-81
2022/04/30 17:02:45;;;;;;;7.47;3.72;;;14.20;66.90;;;;;;5092749;28;20526;-81
2022/04/30 17:05:11;;;;;;;4.63;3.53;;;14.20;67.00;;;;;;5094117;28;20094;-81
2022/04/30 17:07:50;;;;;;;6.20;4.47;;;14.10;67.30;;;;;;5092880;28;20035;-81
2022/04/30 17:12:29;;;;;;;8.05;5.93;;;14.00;66.90;;;;;;5111601;27;20407;-81
2022/04/30 17:14:55;;;;;;;13.35;6.85;;;14.00;67.70;;;;;;5109973;28;20119;-81
2022/04/30 17:17:22;;;;;;;12.50;6.72;;;13.90;68.10;;;;;;5109838;28;20051;-80
2022/04/30 17:19:48;;;;;;;11.90;7.00;;;13.90;68.50;;;;;;5110992;28;20052;-80
2022/04/30 17:22:14;;;;;;;12.13;7.53;;;13.90;68.50;;;;;;5109876;28;20391;-81
2022/04/30 17:24:40;;;;;;;11.95;7.88;;;13.90;68.70;;;;;;5126919;28;20031;-81
2022/04/30 17:27:05;;;;;;;13.05;7.80;;;13.90;69.50;;;;;;5109795;28;20062;-81
2022/04/30 17:29:31;;;;;;;14.73;6.88;;;13.80;69.30;;;;;;5109716;28;20059;-81
2022/04/30 17:40:10;;;;;;;7.43;5.15;;;13.70;71.40;;;;;;5110171;28;20531;-81
2022/04/30 17:42:35;;;;;;;6.68;5.55;;;13.60;71.40;;;;;;5110237;28;20024;-81
2022/04/30 17:45:01;;;;;;;10.10;6.30;;;13.60;71.40;;;;;;5108829;28;20021;-81
2022/04/30 17:47:27;;;;;;;8.43;6.00;;;13.60;71.70;;;;;;5108390;28;20028;-81
2022/04/30 17:49:53;;;;;;;9.45;6.80;;;13.50;72.10;;;;;;5108588;28;20063;-81
2022/04/30 17:52:19;;;;;;;8.77;6.53;;;13.50;72.90;;;;;;5108816;28;20059;-81
2022/04/30 17:54:45;;;;;;;9.00;6.10;;;13.50;72.80;;;;;;5108565;28;20118;-81
2022/04/30 17:57:12;;;;;;;11.88;5.93;;;13.40;72.80;;;;;;5109848;28;20514;-81
2022/04/30 17:59:38;;;;;;;10.32;6.30;;;13.40;72.90;;;;;;5125753;28;20027;-81
2022/04/30 18:02:04;;;;;;;14.35;8.63;;;13.40;73.20;;;;;;5109762;28;20024;-81
2022/04/30 18:04:30;;;;;;;10.32;7.20;;;13.40;73.50;;;;;;5109009;28;20457;-81
2022/04/30 18:06:56;;;;;;;11.27;7.72;;;13.30;73.90;;;;;;5109006;28;20370;-81
2022/04/30 18:09:25;;;;;;;14.93;8.73;;;13.30;74.30;;;;;;5110192;28;20129;-81
2022/04/30 18:11:51;;;;;;;13.73;8.75;;;13.20;74.30;;;;;;5108738;28;20086;-81
2022/04/30 18:14:20;;;;;;;10.75;7.68;;;13.20;74.60;;;;;;5110154;28;20070;-81
2022/04/30 18:16:46;;;;;;;11.27;7.60;;;13.20;74.40;;;;;;5110060;28;20016;-81
2022/04/30 18:19:14;;;;;;;14.43;7.53;;;13.20;76.50;;;;;;5108496;28;20023;-81
2022/04/30 18:21:40;;;;;;;14.85;7.03;;;13.10;75.40;;;;;;5124118;28;20077;-81
2022/04/30 18:24:06;;;;;;;9.98;6.78;;;13.10;76.00;;;;;;5095175;28;20548;-81
2022/04/30 18:26:34;;;;;;;10.00;6.88;;;13.00;75.60;;;;;;5094566;28;20051;-81
2022/04/30 18:29:00;;;;;;;10.90;7.20;;;13.00;75.80;;;;;;5094506;28;20024;-81
2022/04/30 18:31:25;;;;;;;11.75;7.20;;;13.00;76.50;;;;;;5094290;28;20386;-81
2022/04/30 18:33:51;;;;;;;10.00;6.75;;;13.00;76.60;;;;;;5095734;28;20036;-81
2022/04/30 18:36:17;;;;;;;11.88;6.72;;;12.90;76.80;;;;;;5095689;28;20012;-81
2022/04/30 18:38:42;;;;;;;12.07;6.97;;;12.90;77.70;;;;;;5095943;28;20020;-81
2022/04/30 18:41:08;;;;;;;11.65;7.03;;;12.90;77.90;;;;;;5095362;28;20418;-81
2022/04/30 18:43:34;;;;;;;10.38;7.85;;;12.80;78.10;;;;;;5095428;28;20425;-80
2022/04/30 18:46:00;;;;;;;11.18;7.32;;;12.80;78.10;;;;;;5095774;28;20020;-81
2022/04/30 18:48:25;;;;;;;9.02;7.00;;;12.80;78.00;;;;;;5095011;28;20435;-82
2022/04/30 18:50:52;;;;;;;11.23;7.20;;;12.80;77.80;;;;;;5094629;28;20032;-82
2022/04/30 18:53:19;;;;;;;11.20;7.18;;;12.80;78.10;;;;;;5094644;28;20425;-82
2022/04/30 19:01:15;;;;;;;10.80;7.28;;;12.80;78.60;;;;;;5095973;28;20504;-82
2022/04/30 19:03:44;;;;;;;11.13;7.53;;;12.70;78.90;;;;;;5095431;28;20062;-82
2022/04/30 19:06:11;;;;;;;12.60;7.72;;;12.70;78.60;;;;;;5094275;28;20024;-82
2022/04/30 19:08:37;;;;;;;10.27;7.40;;;12.70;78.70;;;;;;5094328;28;20020;-82
2022/04/30 19:11:03;;;;;;;12.18;7.30;;;12.70;78.40;;;;;;5095122;28;20040;-82
2022/04/30 19:13:30;;;;;;;11.13;6.53;;;12.70;78.60;;;;;;5095504;28;20021;-82
2022/04/30 19:15:56;;;;;;;10.93;7.00;;;12.70;78.50;;;;;;5095346;28;20020;-82
2022/04/30 19:18:22;;;;;;;10.05;7.45;;;12.70;79.30;;;;;;5095389;28;20386;-82
2022/04/30 19:20:48;;;;;;;14.45;8.15;;;12.70;78.70;;;;;;5095309;28;20158;-82
2022/04/30 19:23:15;;;;;;;8.80;7.00;;;12.60;78.60;;;;;;5093674;28;20500;-82